sensor_id;sensor_type;location;lat;lon;timestamp;pressure;altitude;pressure_sealevel;temperature;humidity
12759;BME280;20944;47.048;15.390;2023-02-01T00:01:22;97678.72;;;0.13;83.38
12759;BME280;20944;47.048;15.390;2023-02-01T00:03:50;97712.31;;;0.21;83.21
12759;BME280;20944;47.048;15.390;2023-02-01T00:06:19;97715.50;;;0.03;84.54
12759;BME280;20944;47.048;15.390;2023-02-01T00:08:47;97701.50;;;-0.13;85.50
12759;BME280;20944;47.048;15.390;2023-02-01T00:11:15;97702.25;;;-0.20;85.71
12759;BME280;20944;47.048;15.390;2023-02-01T00:13:43;97704.91;;;-0.15;86.13
12759;BME280;20944;47.048;15.390;2023-02-01T00:16:13;97705.78;;;-0.13;85.39
12759;BME280;20944;47.048;15.390;2023-02-01T00:18:45;97742.88;;;-0.01;85.33
12759;BME280;20944;47.048;15.390;2023-02-01T00:21:14;97690.38;;;-0.12;85.43
12759;BME280;20944;47.048;15.390;2023-02-01T00:23:43;97713.75;;;0.01;85.99
12759;BME280;20944;47.048;15.390;2023-02-01T00:26:15;97722.19;;;-0.07;86.59
12759;BME280;20944;47.048;15.390;2023-02-01T00:28:44;97715.50;;;0.06;85.93
12759;BME280;20944;47.048;15.390;2023-02-01T00:31:12;97693.00;;;-0.07;85.32
12759;BME280;20944;47.048;15.390;2023-02-01T00:33:40;97724.84;;;-0.02;85.73
12759;BME280;20944;47.048;15.390;2023-02-01T00:36:10;97717.13;;;-0.02;86.12
12759;BME280;20944;47.048;15.390;2023-02-01T00:38:38;97714.53;;;-0.02;85.96
12759;BME280;20944;47.048;15.390;2023-02-01T00:41:10;97717.97;;;-0.03;85.85
12759;BME280;20944;47.048;15.390;2023-02-01T00:43:39;97722.19;;;-0.07;86.64
12759;BME280;20944;47.048;15.390;2023-02-01T00:46:07;97725.59;;;-0.09;85.60
12759;BME280;20944;47.048;15.390;2023-02-01T00:48:36;97724.44;;;-0.30;87.37
12759;BME280;20944;47.048;15.390;2023-02-01T00:51:06;97726.19;;;-0.25;87.04
12759;BME280;20944;47.048;15.390;2023-02-01T00:53:36;97733.75;;;-0.36;87.52
12759;BME280;20944;47.048;15.390;2023-02-01T00:56:05;97606.34;;;-1.16;88.16
12759;BME280;20944;47.048;15.390;2023-02-01T00:58:33;97726.81;;;-0.40;87.90
12759;BME280;20944;47.048;15.390;2023-02-01T01:01:03;97727.75;;;-0.35;88.12
12759;BME280;20944;47.048;15.390;2023-02-01T01:03:33;97715.78;;;-0.33;87.80
12759;BME280;20944;47.048;15.390;2023-02-01T01:06:04;97711.72;;;-0.19;86.66
12759;BME280;20944;47.048;15.390;2023-02-01T01:08:33;97651.75;;;-0.66;86.39
12759;BME280;20944;47.048;15.390;2023-02-01T01:11:05;97712.13;;;-0.47;88.17
12759;BME280;20944;47.048;15.390;2023-02-01T01:13:34;97678.81;;;-0.88;89.54
12759;BME280;20944;47.048;15.390;2023-02-01T01:16:04;97687.59;;;-0.77;89.95
12759;BME280;20944;47.048;15.390;2023-02-01T01:18:33;97686.84;;;-0.70;89.68
12759;BME280;20944;47.048;15.390;2023-02-01T01:21:03;97675.94;;;-0.57;89.63
12759;BME280;20944;47.048;15.390;2023-02-01T01:23:32;97659.03;;;-0.41;87.66
12759;BME280;20944;47.048;15.390;2023-02-01T01:26:00;97687.72;;;-0.69;88.21
12759;BME280;20944;47.048;15.390;2023-02-01T01:28:30;97542.16;;;-1.13;88.58
12759;BME280;20944;47.048;15.390;2023-02-01T01:30:58;97638.34;;;-0.47;88.28
12759;BME280;20944;47.048;15.390;2023-02-01T01:33:26;97636.44;;;-0.59;88.96
12759;BME280;20944;47.048;15.390;2023-02-01T01:35:54;97634.16;;;-0.40;88.09
12759;BME280;20944;47.048;15.390;2023-02-01T01:38:22;97640.06;;;-0.47;88.13
12759;BME280;20944;47.048;15.390;2023-02-01T01:40:51;97646.91;;;-0.49;88.19
12759;BME280;20944;47.048;15.390;2023-02-01T01:43:20;97656.28;;;-0.51;89.39
12759;BME280;20944;47.048;15.390;2023-02-01T01:45:50;97656.19;;;-0.58;89.71
12759;BME280;20944;47.048;15.390;2023-02-01T01:48:27;97554.06;;;-1.18;89.86
12759;BME280;20944;47.048;15.390;2023-02-01T01:50:58;97639.88;;;-0.58;89.86
12759;BME280;20944;47.048;15.390;2023-02-01T01:53:31;97600.94;;;-0.81;89.24
12759;BME280;20944;47.048;15.390;2023-02-01T01:56:00;97634.47;;;-0.75;89.78
12759;BME280;20944;47.048;15.390;2023-02-01T01:58:29;97662.28;;;-0.52;90.07
12759;BME280;20944;47.048;15.390;2023-02-01T02:00:59;97648.50;;;-0.56;89.46
12759;BME280;20944;47.048;15.390;2023-02-01T02:03:32;97654.34;;;-0.66;90.37
12759;BME280;20944;47.048;15.390;2023-02-01T02:06:02;97664.75;;;-0.59;90.11
12759;BME280;20944;47.048;15.390;2023-02-01T02:08:34;97574.53;;;-1.22;88.91
12759;BME280;20944;47.048;15.390;2023-02-01T02:11:03;97673.50;;;-0.49;89.74
12759;BME280;20944;47.048;15.390;2023-02-01T02:13:33;97623.47;;;-0.65;88.54
12759;BME280;20944;47.048;15.390;2023-02-01T02:16:28;97661.56;;;-0.44;87.56
12759;BME280;20944;47.048;15.390;2023-02-01T02:19:31;97635.25;;;-0.79;88.89
12759;BME280;20944;47.048;15.390;2023-02-01T02:22:14;97493.25;;;-1.66;89.15
12759;BME280;20944;47.048;15.390;2023-02-01T02:27:51;97654.16;;;-0.77;90.38
12759;BME280;20944;47.048;15.390;2023-02-01T02:30:43;97646.44;;;-0.77;90.17
12759;BME280;20944;47.048;15.390;2023-02-01T02:33:48;97649.00;;;-0.77;90.33
12759;BME280;20944;47.048;15.390;2023-02-01T02:36:26;97641.25;;;-0.80;90.97
12759;BME280;20944;47.048;15.390;2023-02-01T02:39:05;97634.41;;;-0.79;90.33
12759;BME280;20944;47.048;15.390;2023-02-01T02:41:43;97619.81;;;-0.80;91.22
12759;BME280;20944;47.048;15.390;2023-02-01T02:44:35;96773.84;;;-5.71;90.38
12759;BME280;20944;47.048;15.390;2023-02-01T02:47:28;97591.91;;;-1.08;90.03
12759;BME280;20944;47.048;15.390;2023-02-01T02:50:17;97635.38;;;-0.73;90.25
12759;BME280;20944;47.048;15.390;2023-02-01T02:53:11;97645.69;;;-0.70;90.94
12759;BME280;20944;47.048;15.390;2023-02-01T02:55:59;97643.81;;;-0.82;90.71
12759;BME280;20944;47.048;15.390;2023-02-01T02:58:46;97658.22;;;-0.88;90.95
12759;BME280;20944;47.048;15.390;2023-02-01T03:01:33;97617.50;;;-1.14;91.60
12759;BME280;20944;47.048;15.390;2023-02-01T03:04:19;97576.19;;;-1.71;92.77
12759;BME280;20944;47.048;15.390;2023-02-01T03:06:49;97531.38;;;-1.40;90.92
12759;BME280;20944;47.048;15.390;2023-02-01T03:09:22;97630.53;;;-1.04;91.29
12759;BME280;20944;47.048;15.390;2023-02-01T03:11:56;97451.13;;;-2.24;92.13
12759;BME280;20944;47.048;15.390;2023-02-01T03:14:47;97617.41;;;-1.20;93.20
12759;BME280;20944;47.048;15.390;2023-02-01T03:17:21;97631.16;;;-1.19;93.43
12759;BME280;20944;47.048;15.390;2023-02-01T03:19:53;97632.13;;;-1.11;93.26
12759;BME280;20944;47.048;15.390;2023-02-01T03:22:26;97616.72;;;-1.10;93.26
12759;BME280;20944;47.048;15.390;2023-02-01T03:25:01;97461.78;;;-2.02;93.27
12759;BME280;20944;47.048;15.390;2023-02-01T03:27:33;97616.72;;;-1.11;93.19
12759;BME280;20944;47.048;15.390;2023-02-01T03:30:06;97622.72;;;-1.11;93.58
12759;BME280;20944;47.048;15.390;2023-02-01T03:32:38;97594.25;;;-1.20;93.46
12759;BME280;20944;47.048;15.390;2023-02-01T03:35:25;97583.94;;;-1.24;93.91
12759;BME280;20944;47.048;15.390;2023-02-01T03:38:02;97624.56;;;-1.03;92.05
12759;BME280;20944;47.048;15.390;2023-02-01T03:40:35;97621.66;;;-1.22;92.97
12759;BME280;20944;47.048;15.390;2023-02-01T03:43:06;97574.59;;;-1.65;94.42
12759;BME280;20944;47.048;15.390;2023-02-01T03:45:41;97629.22;;;-1.29;93.99
12759;BME280;20944;47.048;15.390;2023-02-01T03:48:12;97631.16;;;-1.19;93.02
12759;BME280;20944;47.048;15.390;2023-02-01T03:50:46;97637.75;;;-1.32;93.57
12759;BME280;20944;47.048;15.390;2023-02-01T03:53:20;97637.69;;;-1.35;94.03
12759;BME280;20944;47.048;15.390;2023-02-01T03:55:50;97615.91;;;-1.54;93.95
12759;BME280;20944;47.048;15.390;2023-02-01T03:58:21;97568.75;;;-2.01;95.11
12759;BME280;20944;47.048;15.390;2023-02-01T04:00:52;97632.19;;;-1.53;96.24
12759;BME280;20944;47.048;15.390;2023-02-01T04:03:21;97640.88;;;-1.48;96.65
12759;BME280;20944;47.048;15.390;2023-02-01T04:05:49;97595.97;;;-1.67;95.79
12759;BME280;20944;47.048;15.390;2023-02-01T04:08:20;97661.31;;;-1.08;95.03
12759;BME280;20944;47.048;15.390;2023-02-01T04:10:48;97669.84;;;-1.10;94.04
12759;BME280;20944;47.048;15.390;2023-02-01T04:13:16;97661.06;;;-1.21;93.39
12759;BME280;20944;47.048;15.390;2023-02-01T04:15:46;97629.66;;;-1.52;94.31
12759;BME280;20944;47.048;15.390;2023-02-01T04:18:16;97668.63;;;-1.29;94.98
12759;BME280;20944;47.048;15.390;2023-02-01T04:20:44;97656.56;;;-1.33;96.08
12759;BME280;20944;47.048;15.390;2023-02-01T04:23:12;97649.09;;;-1.21;96.08
12759;BME280;20944;47.048;15.390;2023-02-01T04:25:43;97668.91;;;-1.15;94.50
12759;BME280;20944;47.048;15.390;2023-02-01T04:28:12;97657.47;;;-1.31;95.23
12759;BME280;20944;47.048;15.390;2023-02-01T04:30:40;97633.84;;;-1.57;95.62
12759;BME280;20944;47.048;15.390;2023-02-01T04:33:08;97640.22;;;-1.37;96.17
12759;BME280;20944;47.048;15.390;2023-02-01T04:35:40;97627.56;;;-1.71;95.90
12759;BME280;20944;47.048;15.390;2023-02-01T04:38:09;97667.91;;;-1.23;95.55
12759;BME280;20944;47.048;15.390;2023-02-01T04:40:37;97661.78;;;-1.30;95.15
12759;BME280;20944;47.048;15.390;2023-02-01T04:43:06;97639.06;;;-1.52;95.95
12759;BME280;20944;47.048;15.390;2023-02-01T04:45:35;97656.41;;;-1.41;96.67
12759;BME280;20944;47.048;15.390;2023-02-01T04:48:03;97665.84;;;-1.41;96.76
12759;BME280;20944;47.048;15.390;2023-02-01T04:50:32;97647.47;;;-1.61;97.33
12759;BME280;20944;47.048;15.390;2023-02-01T04:53:00;97651.38;;;-1.36;97.24
12759;BME280;20944;47.048;15.390;2023-02-01T04:55:28;97660.94;;;-1.27;96.47
12759;BME280;20944;47.048;15.390;2023-02-01T04:57:57;97642.22;;;-1.22;96.24
12759;BME280;20944;47.048;15.390;2023-02-01T05:00:27;97647.25;;;-1.28;95.88
12759;BME280;20944;47.048;15.390;2023-02-01T05:02:55;97658.34;;;-1.30;95.81
12759;BME280;20944;47.048;15.390;2023-02-01T05:05:23;97646.25;;;-1.36;96.56
12759;BME280;20944;47.048;15.390;2023-02-01T05:07:51;97612.28;;;-1.64;96.96
12759;BME280;20944;47.048;15.390;2023-02-01T05:10:20;97647.16;;;-1.32;96.35
12759;BME280;20944;47.048;15.390;2023-02-01T05:12:48;97652.38;;;-1.28;96.83
12759;BME280;20944;47.048;15.390;2023-02-01T05:15:35;97661.94;;;-1.21;96.66
12759;BME280;20944;47.048;15.390;2023-02-01T05:18:03;97646.50;;;-1.22;95.78
12759;BME280;20944;47.048;15.390;2023-02-01T05:20:32;97666.22;;;-1.20;96.15
12759;BME280;20944;47.048;15.390;2023-02-01T05:23:00;97658.25;;;-1.35;95.31
12759;BME280;20944;47.048;15.390;2023-02-01T05:25:28;97636.34;;;-1.60;97.00
12759;BME280;20944;47.048;15.390;2023-02-01T05:27:56;97652.75;;;-1.53;97.96
12759;BME280;20944;47.048;15.390;2023-02-01T05:30:24;97659.72;;;-1.46;98.36
12759;BME280;20944;47.048;15.390;2023-02-01T05:32:54;97664.94;;;-1.43;97.87
12759;BME280;20944;47.048;15.390;2023-02-01T05:35:22;97678.63;;;-1.44;98.09
12759;BME280;20944;47.048;15.390;2023-02-01T05:37:50;97670.03;;;-1.45;97.54
12759;BME280;20944;47.048;15.390;2023-02-01T05:40:18;97657.84;;;-1.56;97.79
12759;BME280;20944;47.048;15.390;2023-02-01T05:42:47;97673.50;;;-1.44;97.64
12759;BME280;20944;47.048;15.390;2023-02-01T05:45:15;97670.13;;;-1.40;98.64
12759;BME280;20944;47.048;15.390;2023-02-01T05:47:44;97669.47;;;-1.31;98.44
12759;BME280;20944;47.048;15.390;2023-02-01T05:50:15;97660.78;;;-1.37;98.01
12759;BME280;20944;47.048;15.390;2023-02-01T05:52:43;97636.59;;;-1.46;97.80
12759;BME280;20944;47.048;15.390;2023-02-01T05:55:11;97643.53;;;-1.42;97.03
12759;BME280;20944;47.048;15.390;2023-02-01T05:57:39;97672.72;;;-1.39;97.09
12759;BME280;20944;47.048;15.390;2023-02-01T06:00:09;97649.44;;;-1.46;96.49
12759;BME280;20944;47.048;15.390;2023-02-01T06:02:37;97664.00;;;-1.47;97.07
12759;BME280;20944;47.048;15.390;2023-02-01T06:05:07;97638.66;;;-1.72;98.36
12759;BME280;20944;47.048;15.390;2023-02-01T06:07:36;97684.66;;;-1.42;97.57
12759;BME280;20944;47.048;15.390;2023-02-01T06:10:05;97671.69;;;-1.48;97.24
12759;BME280;20944;47.048;15.390;2023-02-01T06:12:34;97646.53;;;-1.65;97.67
12759;BME280;20944;47.048;15.390;2023-02-01T06:15:02;97656.06;;;-1.57;98.58
12759;BME280;20944;47.048;15.390;2023-02-01T06:17:30;97671.84;;;-1.39;98.57
12759;BME280;20944;47.048;15.390;2023-02-01T06:19:58;97654.47;;;-1.52;98.65
12759;BME280;20944;47.048;15.390;2023-02-01T06:22:26;97656.16;;;-1.54;97.92
12759;BME280;20944;47.048;15.390;2023-02-01T06:24:56;97669.16;;;-1.47;98.79
12759;BME280;20944;47.048;15.390;2023-02-01T06:27:25;97644.06;;;-1.60;98.98
12759;BME280;20944;47.048;15.390;2023-02-01T06:29:53;97673.38;;;-1.50;99.55
12759;BME280;20944;47.048;15.390;2023-02-01T06:32:21;97639.41;;;-1.78;99.37
12759;BME280;20944;47.048;15.390;2023-02-01T06:34:50;97668.41;;;-1.41;98.96
12759;BME280;20944;47.048;15.390;2023-02-01T06:37:19;97674.00;;;-1.18;98.29
12759;BME280;20944;47.048;15.390;2023-02-01T06:39:48;97683.19;;;-1.31;98.22
12759;BME280;20944;47.048;15.390;2023-02-01T06:42:17;97672.69;;;-1.40;98.39
12759;BME280;20944;47.048;15.390;2023-02-01T06:44:45;97683.25;;;-1.26;98.31
12759;BME280;20944;47.048;15.390;2023-02-01T06:47:14;97678.06;;;-1.28;97.07
12759;BME280;20944;47.048;15.390;2023-02-01T06:49:42;97697.91;;;-1.21;98.54
12759;BME280;20944;47.048;15.390;2023-02-01T06:52:10;97682.34;;;-1.28;98.27
12759;BME280;20944;47.048;15.390;2023-02-01T06:54:38;97701.56;;;-1.10;97.91
12759;BME280;20944;47.048;15.390;2023-02-01T06:57:06;97707.72;;;-1.01;98.12
12759;BME280;20944;47.048;15.390;2023-02-01T06:59:36;97655.16;;;-1.17;98.30
12759;BME280;20944;47.048;15.390;2023-02-01T07:02:04;97653.69;;;-1.03;96.58
12759;BME280;20944;47.048;15.390;2023-02-01T07:04:33;97704.75;;;-0.76;96.47
12759;BME280;20944;47.048;15.390;2023-02-01T07:07:01;97668.63;;;-0.82;95.50
12759;BME280;20944;47.048;15.390;2023-02-01T07:09:29;97702.47;;;-0.61;96.03
12759;BME280;20944;47.048;15.390;2023-02-01T07:11:58;97691.41;;;-0.55;94.55
12759;BME280;20944;47.048;15.390;2023-02-01T07:14:26;97704.50;;;-0.41;95.54
12759;BME280;20944;47.048;15.390;2023-02-01T07:16:55;97685.72;;;-0.34;94.85
12759;BME280;20944;47.048;15.390;2023-02-01T07:19:24;97696.41;;;-0.10;95.13
12759;BME280;20944;47.048;15.390;2023-02-01T07:21:52;97687.19;;;0.06;93.64
12759;BME280;20944;47.048;15.390;2023-02-01T07:24:20;97677.03;;;0.17;92.65
12759;BME280;20944;47.048;15.390;2023-02-01T07:26:49;97656.34;;;0.11;91.73
12759;BME280;20944;47.048;15.390;2023-02-01T07:29:18;97665.19;;;0.28;91.68
12759;BME280;20944;47.048;15.390;2023-02-01T07:31:47;97676.59;;;0.50;91.21
12759;BME280;20944;47.048;15.390;2023-02-01T07:34:17;97675.94;;;0.63;90.11
12759;BME280;20944;47.048;15.390;2023-02-01T07:36:45;97666.50;;;0.67;89.53
12759;BME280;20944;47.048;15.390;2023-02-01T07:39:13;97688.34;;;0.95;88.58
12759;BME280;20944;47.048;15.390;2023-02-01T07:41:41;97658.84;;;0.71;88.21
12759;BME280;20944;47.048;15.390;2023-02-01T07:44:09;97684.31;;;1.24;87.68
12759;BME280;20944;47.048;15.390;2023-02-01T07:46:38;97700.84;;;1.43;86.69
12759;BME280;20944;47.048;15.390;2023-02-01T07:49:06;97665.56;;;1.41;84.79
12759;BME280;20944;47.048;15.390;2023-02-01T07:51:36;97662.16;;;1.49;84.89
12759;BME280;20944;47.048;15.390;2023-02-01T07:54:04;97696.94;;;1.91;83.39
12759;BME280;20944;47.048;15.390;2023-02-01T07:56:32;97690.91;;;1.94;82.14
12759;BME280;20944;47.048;15.390;2023-02-01T07:59:01;97643.56;;;1.93;80.83
12759;BME280;20944;47.048;15.390;2023-02-01T08:01:29;97669.59;;;2.21;78.68
12759;BME280;20944;47.048;15.390;2023-02-01T08:03:57;97676.56;;;2.37;79.11
12759;BME280;20944;47.048;15.390;2023-02-01T08:06:28;97713.78;;;2.74;78.13
12759;BME280;20944;47.048;15.390;2023-02-01T08:08:59;97655.94;;;2.55;77.89
12759;BME280;20944;47.048;15.390;2023-02-01T08:11:27;97704.47;;;3.16;76.71
12759;BME280;20944;47.048;15.390;2023-02-01T08:13:56;97704.50;;;3.30;75.37
12759;BME280;20944;47.048;15.390;2023-02-01T08:16:24;97657.88;;;3.14;73.80
12759;BME280;20944;47.048;15.390;2023-02-01T08:18:52;97678.59;;;3.37;72.89
12759;BME280;20944;47.048;15.390;2023-02-01T08:21:23;97710.56;;;3.64;71.63
12759;BME280;20944;47.048;15.390;2023-02-01T08:23:52;97557.69;;;2.60;71.31
12759;BME280;20944;47.048;15.390;2023-02-01T08:26:23;97702.81;;;3.79;72.86
12759;BME280;20944;47.048;15.390;2023-02-01T08:28:54;97698.50;;;3.96;71.80
12759;BME280;20944;47.048;15.390;2023-02-01T08:31:24;97701.06;;;4.12;70.37
12759;BME280;20944;47.048;15.390;2023-02-01T08:33:54;97692.41;;;4.25;69.18
12759;BME280;20944;47.048;15.390;2023-02-01T08:36:25;97680.28;;;4.27;67.70
12759;BME280;20944;47.048;15.390;2023-02-01T08:38:53;97675.09;;;4.30;67.11
12759;BME280;20944;47.048;15.390;2023-02-01T08:41:24;97693.16;;;4.64;67.01
12759;BME280;20944;47.048;15.390;2023-02-01T08:43:53;97717.41;;;4.63;66.94
12759;BME280;20944;47.048;15.390;2023-02-01T08:46:22;97687.03;;;4.87;66.12
12759;BME280;20944;47.048;15.390;2023-02-01T08:48:51;97683.53;;;4.98;65.10
12759;BME280;20944;47.048;15.390;2023-02-01T08:51:21;97690.38;;;5.08;64.91
12759;BME280;20944;47.048;15.390;2023-02-01T08:53:50;97675.59;;;5.21;64.31
12759;BME280;20944;47.048;15.390;2023-02-01T08:56:19;97657.44;;;5.19;63.61
12759;BME280;20944;47.048;15.390;2023-02-01T08:58:49;97645.25;;;5.26;63.77
12759;BME280;20944;47.048;15.390;2023-02-01T09:01:17;97668.47;;;5.55;62.39
12759;BME280;20944;47.048;15.390;2023-02-01T09:03:45;97627.06;;;5.29;62.48
12759;BME280;20944;47.048;15.390;2023-02-01T09:06:14;97650.31;;;5.46;61.99
12759;BME280;20944;47.048;15.390;2023-02-01T09:08:43;97668.38;;;5.67;61.87
12759;BME280;20944;47.048;15.390;2023-02-01T09:11:12;97671.81;;;5.69;61.17
12759;BME280;20944;47.048;15.390;2023-02-01T09:13:41;97652.81;;;5.61;60.08
12759;BME280;20944;47.048;15.390;2023-02-01T09:16:11;97670.91;;;5.73;61.07
12759;BME280;20944;47.048;15.390;2023-02-01T09:18:39;97663.94;;;5.80;60.25
12759;BME280;20944;47.048;15.390;2023-02-01T09:21:22;97648.38;;;5.71;60.56
12759;BME280;20944;47.048;15.390;2023-02-01T09:23:50;97669.13;;;5.77;61.29
12759;BME280;20944;47.048;15.390;2023-02-01T09:26:19;97658.69;;;5.86;61.26
12759;BME280;20944;47.048;15.390;2023-02-01T09:28:55;97657.78;;;5.93;61.46
12759;BME280;20944;47.048;15.390;2023-02-01T09:31:25;97650.81;;;5.98;62.27
12759;BME280;20944;47.048;15.390;2023-02-01T09:33:54;97642.16;;;5.94;60.35
12759;BME280;20944;47.048;15.390;2023-02-01T09:36:22;97644.78;;;5.91;61.29
12759;BME280;20944;47.048;15.390;2023-02-01T09:38:50;97648.91;;;6.12;61.39
12759;BME280;20944;47.048;15.390;2023-02-01T09:41:28;97627.28;;;6.09;60.25
12759;BME280;20944;47.048;15.390;2023-02-01T09:44:08;97657.22;;;6.49;59.63
12759;BME280;20944;47.048;15.390;2023-02-01T09:46:42;97645.84;;;6.57;59.59
12759;BME280;20944;47.048;15.390;2023-02-01T09:49:13;97637.91;;;6.67;59.69
12759;BME280;20944;47.048;15.390;2023-02-01T09:51:44;97611.84;;;6.69;59.41
12759;BME280;20944;47.048;15.390;2023-02-01T09:54:16;97588.59;;;6.55;58.34
12759;BME280;20944;47.048;15.390;2023-02-01T09:56:47;97631.44;;;6.99;57.79
12759;BME280;20944;47.048;15.390;2023-02-01T09:59:33;97608.78;;;7.02;58.43
12759;BME280;20944;47.048;15.390;2023-02-01T10:02:11;97617.19;;;7.23;59.42
12759;BME280;20944;47.048;15.390;2023-02-01T10:04:40;97610.13;;;7.31;61.25
12759;BME280;20944;47.048;15.390;2023-02-01T10:07:19;97557.38;;;7.14;60.88
12759;BME280;20944;47.048;15.390;2023-02-01T10:09:54;97590.63;;;7.53;60.56
12759;BME280;20944;47.048;15.390;2023-02-01T10:12:41;97578.44;;;7.54;60.97
12759;BME280;20944;47.048;15.390;2023-02-01T10:15:24;97593.78;;;7.74;60.22
12759;BME280;20944;47.048;15.390;2023-02-01T10:18:07;97597.16;;;7.80;60.58
12759;BME280;20944;47.048;15.390;2023-02-01T10:20:51;97595.25;;;7.89;59.25
12759;BME280;20944;47.048;15.390;2023-02-01T10:23:35;97590.81;;;7.94;59.94
12759;BME280;20944;47.048;15.390;2023-02-01T10:26:16;97586.28;;;8.03;59.59
12759;BME280;20944;47.048;15.390;2023-02-01T10:28:48;97577.44;;;8.10;59.05
12759;BME280;20944;47.048;15.390;2023-02-01T10:31:18;97579.06;;;8.18;58.15
12759;BME280;20944;47.048;15.390;2023-02-01T10:33:50;97572.00;;;8.23;58.71
12759;BME280;20944;47.048;15.390;2023-02-01T10:36:23;97500.59;;;7.82;57.85
12759;BME280;20944;47.048;15.390;2023-02-01T10:38:57;97556.16;;;8.32;57.76
12759;BME280;20944;47.048;15.390;2023-02-01T10:41:31;97550.84;;;8.38;58.61
12759;BME280;20944;47.048;15.390;2023-02-01T10:44:03;97546.31;;;8.46;59.25
12759;BME280;20944;47.048;15.390;2023-02-01T10:46:34;97533.94;;;8.56;58.85
12759;BME280;20944;47.048;15.390;2023-02-01T10:49:05;97508.28;;;8.36;56.79
12759;BME280;20944;47.048;15.390;2023-02-01T10:51:42;97526.75;;;8.65;56.15
12759;BME280;20944;47.048;15.390;2023-02-01T10:54:15;97479.25;;;8.48;55.16
12759;BME280;20944;47.048;15.390;2023-02-01T10:56:44;97529.06;;;8.81;55.88
12759;BME280;20944;47.048;15.390;2023-02-01T10:59:19;97542.72;;;8.92;54.79
12759;BME280;20944;47.048;15.390;2023-02-01T11:01:48;97529.53;;;8.97;54.06
12759;BME280;20944;47.048;15.390;2023-02-01T11:04:19;97515.28;;;9.11;52.68
12759;BME280;20944;47.048;15.390;2023-02-01T11:06:50;97511.53;;;9.22;53.15
12759;BME280;20944;47.048;15.390;2023-02-01T11:09:21;97514.59;;;9.39;53.30
12759;BME280;20944;47.048;15.390;2023-02-01T11:11:57;97482.38;;;9.38;52.20
12759;BME280;20944;47.048;15.390;2023-02-01T11:14:35;97483.66;;;9.56;50.66
12759;BME280;20944;47.048;15.390;2023-02-01T11:17:21;97500.31;;;9.85;51.00
12759;BME280;20944;47.048;15.390;2023-02-01T11:20:03;97503.56;;;9.93;50.37
12759;BME280;20944;47.048;15.390;2023-02-01T11:22:32;97485.91;;;10.01;49.81
12759;BME280;20944;47.048;15.390;2023-02-01T11:25:08;97485.91;;;10.01;51.53
12759;BME280;20944;47.048;15.390;2023-02-01T11:27:38;97380.94;;;9.50;51.25
12759;BME280;20944;47.048;15.390;2023-02-01T11:30:27;97455.44;;;9.98;50.61
12759;BME280;20944;47.048;15.390;2023-02-01T11:32:59;97455.88;;;10.14;50.49
12759;BME280;20944;47.048;15.390;2023-02-01T11:35:33;97450.63;;;10.14;50.57
12759;BME280;20944;47.048;15.390;2023-02-01T11:38:12;97450.47;;;10.20;49.79
12759;BME280;20944;47.048;15.390;2023-02-01T11:40:41;97435.56;;;10.22;49.61
12759;BME280;20944;47.048;15.390;2023-02-01T11:43:26;97435.47;;;10.27;50.77
12759;BME280;20944;47.048;15.390;2023-02-01T11:45:57;97421.78;;;10.16;48.45
12759;BME280;20944;47.048;15.390;2023-02-01T11:48:27;97415.69;;;10.15;48.71
12759;BME280;20944;47.048;15.390;2023-02-01T11:51:13;97377.16;;;10.20;50.52
12759;BME280;20944;47.048;15.390;2023-02-01T11:54:06;97408.38;;;10.56;47.61
12759;BME280;20944;47.048;15.390;2023-02-01T11:56:39;97391.59;;;10.62;47.65
12759;BME280;20944;47.048;15.390;2023-02-01T11:59:19;97388.69;;;10.71;45.43
12759;BME280;20944;47.048;15.390;2023-02-01T12:02:08;97389.69;;;10.93;44.90
12759;BME280;20944;47.048;15.390;2023-02-01T12:05:14;97389.78;;;11.17;41.52
12759;BME280;20944;47.048;15.390;2023-02-01T12:08:15;97339.09;;;11.16;41.27
12759;BME280;20944;47.048;15.390;2023-02-01T12:10:52;97309.25;;;11.20;40.85
12759;BME280;20944;47.048;15.390;2023-02-01T12:13:35;97371.81;;;11.79;39.26
12759;BME280;20944;47.048;15.390;2023-02-01T12:16:12;97336.56;;;11.63;37.70
12759;BME280;20944;47.048;15.390;2023-02-01T12:19:15;97377.97;;;12.03;37.66
12759;BME280;20944;47.048;15.390;2023-02-01T12:21:56;97380.91;;;12.18;35.83
12759;BME280;20944;47.048;15.390;2023-02-01T12:25:05;97382.13;;;12.32;35.79
12759;BME280;20944;47.048;15.390;2023-02-01T12:27:53;97372.69;;;12.49;35.72
12759;BME280;20944;47.048;15.390;2023-02-01T12:33:33;97351.19;;;12.61;33.82
12759;BME280;20944;47.048;15.390;2023-02-01T12:36:12;97386.47;;;12.77;33.25
12759;BME280;20944;47.048;15.390;2023-02-01T12:38:51;97390.63;;;12.83;33.70
12759;BME280;20944;47.048;15.390;2023-02-01T12:41:58;97397.53;;;12.85;32.94
12759;BME280;20944;47.048;15.390;2023-02-01T12:44:34;97386.16;;;12.85;32.95
12759;BME280;20944;47.048;15.390;2023-02-01T12:47:09;97227.34;;;12.04;32.11
12759;BME280;20944;47.048;15.390;2023-02-01T12:49:50;97393.03;;;12.87;31.12
12759;BME280;20944;47.048;15.390;2023-02-01T12:52:28;97384.78;;;12.75;30.91
12759;BME280;20944;47.048;15.390;2023-02-01T12:55:06;97369.59;;;12.61;30.76
12759;BME280;20944;47.048;15.390;2023-02-01T12:57:40;97405.03;;;12.73;31.30
12759;BME280;20944;47.048;15.390;2023-02-01T13:00:20;97404.44;;;12.66;30.92
12759;BME280;20944;47.048;15.390;2023-02-01T13:02:56;97395.16;;;12.57;31.33
12759;BME280;20944;47.048;15.390;2023-02-01T13:05:30;97390.72;;;12.80;31.66
12759;BME280;20944;47.048;15.390;2023-02-01T13:08:04;97247.66;;;12.01;31.20
12759;BME280;20944;47.048;15.390;2023-02-01T13:10:38;97383.25;;;12.69;31.69
12759;BME280;20944;47.048;15.390;2023-02-01T13:13:15;97394.59;;;12.71;31.34
12759;BME280;20944;47.048;15.390;2023-02-01T13:15:48;97385.72;;;12.95;30.29
12759;BME280;20944;47.048;15.390;2023-02-01T13:18:19;97390.16;;;13.15;30.61
12759;BME280;20944;47.048;15.390;2023-02-01T13:20:53;97369.19;;;13.34;31.28
12759;BME280;20944;47.048;15.390;2023-02-01T13:23:26;97387.75;;;13.52;30.96
12759;BME280;20944;47.048;15.390;2023-02-01T13:25:55;97397.22;;;13.56;30.86
12759;BME280;20944;47.048;15.390;2023-02-01T13:28:28;97377.41;;;13.47;30.70